sensor_id;sensor_type;location;lat;lon;timestamp;temperature;humidity
2995;DHT22;35277;49.890;8.222;2023-07-08T00:01:11;27.00;56.10
2995;DHT22;35277;49.890;8.222;2023-07-08T00:03:39;27.00;56.00
2995;DHT22;35277;49.890;8.222;2023-07-08T00:06:12;27.00;56.10
2995;DHT22;35277;49.890;8.222;2023-07-08T00:08:42;27.00;56.10
2995;DHT22;35277;49.890;8.222;2023-07-08T00:11:10;27.00;56.10
2995;DHT22;35277;49.890;8.222;2023-07-08T00:13:38;27.00;56.10
2995;DHT22;35277;49.890;8.222;2023-07-08T00:16:10;27.00;56.10
2995;DHT22;35277;49.890;8.222;2023-07-08T00:18:38;27.00;56.10
2995;DHT22;35277;49.890;8.222;2023-07-08T00:21:09;27.00;56.10
2995;DHT22;35277;49.890;8.222;2023-07-08T00:23:36;27.00;56.10
2995;DHT22;35277;49.890;8.222;2023-07-08T00:26:10;27.00;56.10
2995;DHT22;35277;49.890;8.222;2023-07-08T00:28:40;27.00;56.10
2995;DHT22;35277;49.890;8.222;2023-07-08T00:31:09;27.00;56.10
2995;DHT22;35277;49.890;8.222;2023-07-08T00:33:37;27.00;56.10
2995;DHT22;35277;49.890;8.222;2023-07-08T00:36:09;27.00;56.10
2995;DHT22;35277;49.890;8.222;2023-07-08T00:38:39;27.00;56.20
2995;DHT22;35277;49.890;8.222;2023-07-08T00:41:16;27.00;56.20
2995;DHT22;35277;49.890;8.222;2023-07-08T00:43:49;27.00;56.20
2995;DHT22;35277;49.890;8.222;2023-07-08T00:46:31;27.00;56.20
2995;DHT22;35277;49.890;8.222;2023-07-08T00:49:15;27.00;56.20
2995;DHT22;35277;49.890;8.222;2023-07-08T00:51:44;27.00;56.20
2995;DHT22;35277;49.890;8.222;2023-07-08T00:54:13;27.00;56.20
2995;DHT22;35277;49.890;8.222;2023-07-08T00:56:44;27.00;56.20
2995;DHT22;35277;49.890;8.222;2023-07-08T00:59:21;27.00;56.20
2995;DHT22;35277;49.890;8.222;2023-07-08T01:01:53;27.00;56.20
2995;DHT22;35277;49.890;8.222;2023-07-08T01:04:24;27.00;56.30
2995;DHT22;35277;49.890;8.222;2023-07-08T01:06:54;27.00;56.20
2995;DHT22;35277;49.890;8.222;2023-07-08T01:09:27;27.00;56.20
2995;DHT22;35277;49.890;8.222;2023-07-08T01:12:00;27.00;56.30
2995;DHT22;35277;49.890;8.222;2023-07-08T01:14:31;27.00;56.30
2995;DHT22;35277;49.890;8.222;2023-07-08T01:16:59;27.00;56.30
2995;DHT22;35277;49.890;8.222;2023-07-08T01:19:28;27.00;56.30
2995;DHT22;35277;49.890;8.222;2023-07-08T01:22:01;27.00;56.30
2995;DHT22;35277;49.890;8.222;2023-07-08T01:24:30;27.00;56.30
2995;DHT22;35277;49.890;8.222;2023-07-08T01:27:00;26.90;56.20
2995;DHT22;35277;49.890;8.222;2023-07-08T01:29:29;27.00;56.30
2995;DHT22;35277;49.890;8.222;2023-07-08T01:31:58;27.00;56.30
2995;DHT22;35277;49.890;8.222;2023-07-08T01:34:29;27.00;56.30
2995;DHT22;35277;49.890;8.222;2023-07-08T01:36:59;27.00;56.30
2995;DHT22;35277;49.890;8.222;2023-07-08T01:39:30;27.00;56.30
2995;DHT22;35277;49.890;8.222;2023-07-08T01:41:59;27.00;56.30
2995;DHT22;35277;49.890;8.222;2023-07-08T01:44:28;27.00;56.30
2995;DHT22;35277;49.890;8.222;2023-07-08T01:46:59;27.00;56.30
2995;DHT22;35277;49.890;8.222;2023-07-08T01:49:27;27.00;56.30
2995;DHT22;35277;49.890;8.222;2023-07-08T01:51:55;27.00;56.30
2995;DHT22;35277;49.890;8.222;2023-07-08T01:54:23;27.00;56.30
2995;DHT22;35277;49.890;8.222;2023-07-08T01:56:56;27.00;56.30
2995;DHT22;35277;49.890;8.222;2023-07-08T01:59:24;27.00;56.30
2995;DHT22;35277;49.890;8.222;2023-07-08T02:01:52;26.90;56.20
2995;DHT22;35277;49.890;8.222;2023-07-08T02:04:22;27.00;56.30
2995;DHT22;35277;49.890;8.222;2023-07-08T02:06:52;27.00;56.30
2995;DHT22;35277;49.890;8.222;2023-07-08T02:09:20;26.90;56.20
2995;DHT22;35277;49.890;8.222;2023-07-08T02:11:48;27.00;56.30
2995;DHT22;35277;49.890;8.222;2023-07-08T02:14:17;27.00;56.30
2995;DHT22;35277;49.890;8.222;2023-07-08T02:16:45;27.00;56.30
2995;DHT22;35277;49.890;8.222;2023-07-08T02:19:13;27.00;56.30
2995;DHT22;35277;49.890;8.222;2023-07-08T02:21:41;27.00;56.30
2995;DHT22;35277;49.890;8.222;2023-07-08T02:24:09;27.00;56.30
2995;DHT22;35277;49.890;8.222;2023-07-08T02:26:37;27.00;56.30
2995;DHT22;35277;49.890;8.222;2023-07-08T02:29:05;27.00;56.30
2995;DHT22;35277;49.890;8.222;2023-07-08T02:31:34;26.90;56.30
2995;DHT22;35277;49.890;8.222;2023-07-08T02:34:02;27.00;56.40
2995;DHT22;35277;49.890;8.222;2023-07-08T02:36:30;27.00;56.40
2995;DHT22;35277;49.890;8.222;2023-07-08T02:38:57;26.90;56.30
2995;DHT22;35277;49.890;8.222;2023-07-08T02:41:25;27.00;56.40
2995;DHT22;35277;49.890;8.222;2023-07-08T02:43:53;27.00;56.40
2995;DHT22;35277;49.890;8.222;2023-07-08T02:46:21;27.00;56.40
2995;DHT22;35277;49.890;8.222;2023-07-08T02:48:50;27.00;56.40
2995;DHT22;35277;49.890;8.222;2023-07-08T02:51:18;27.00;56.40
2995;DHT22;35277;49.890;8.222;2023-07-08T02:53:47;27.00;56.40
2995;DHT22;35277;49.890;8.222;2023-07-08T02:56:16;26.90;56.40
2995;DHT22;35277;49.890;8.222;2023-07-08T02:58:44;27.00;56.40
2995;DHT22;35277;49.890;8.222;2023-07-08T03:01:11;26.90;56.40
2995;DHT22;35277;49.890;8.222;2023-07-08T03:03:44;26.90;56.40
2995;DHT22;35277;49.890;8.222;2023-07-08T03:06:14;26.90;56.40
2995;DHT22;35277;49.890;8.222;2023-07-08T03:08:41;27.00;56.50
2995;DHT22;35277;49.890;8.222;2023-07-08T03:11:09;26.90;56.40
2995;DHT22;35277;49.890;8.222;2023-07-08T03:13:38;26.90;56.40
2995;DHT22;35277;49.890;8.222;2023-07-08T03:16:07;26.90;56.40
2995;DHT22;35277;49.890;8.222;2023-07-08T03:18:39;26.90;56.40
2995;DHT22;35277;49.890;8.222;2023-07-08T03:21:16;26.90;56.40
2995;DHT22;35277;49.890;8.222;2023-07-08T03:23:44;26.90;56.40
2995;DHT22;35277;49.890;8.222;2023-07-08T03:26:13;26.90;56.40
2995;DHT22;35277;49.890;8.222;2023-07-08T03:28:44;26.90;56.40
2995;DHT22;35277;49.890;8.222;2023-07-08T03:31:12;26.90;56.40
2995;DHT22;35277;49.890;8.222;2023-07-08T03:33:40;26.90;56.40
2995;DHT22;35277;49.890;8.222;2023-07-08T03:36:12;26.90;56.40
2995;DHT22;35277;49.890;8.222;2023-07-08T03:38:41;26.90;56.40
2995;DHT22;35277;49.890;8.222;2023-07-08T03:41:11;26.90;56.40
2995;DHT22;35277;49.890;8.222;2023-07-08T03:43:39;26.90;56.40
2995;DHT22;35277;49.890;8.222;2023-07-08T03:46:08;26.90;56.40
2995;DHT22;35277;49.890;8.222;2023-07-08T03:48:37;26.90;56.40
2995;DHT22;35277;49.890;8.222;2023-07-08T03:51:08;26.90;56.50
2995;DHT22;35277;49.890;8.222;2023-07-08T03:53:37;26.90;56.40
2995;DHT22;35277;49.890;8.222;2023-07-08T03:56:09;26.90;56.50
2995;DHT22;35277;49.890;8.222;2023-07-08T03:58:39;26.90;56.50
2995;DHT22;35277;49.890;8.222;2023-07-08T04:01:13;26.90;56.50
2995;DHT22;35277;49.890;8.222;2023-07-08T04:03:44;26.90;56.50
2995;DHT22;35277;49.890;8.222;2023-07-08T04:06:12;26.90;56.50
2995;DHT22;35277;49.890;8.222;2023-07-08T04:08:40;26.90;56.50
2995;DHT22;35277;49.890;8.222;2023-07-08T04:11:10;26.90;56.50
2995;DHT22;35277;49.890;8.222;2023-07-08T04:13:39;26.90;56.50
2995;DHT22;35277;49.890;8.222;2023-07-08T04:16:07;26.90;56.50
2995;DHT22;35277;49.890;8.222;2023-07-08T04:18:38;26.90;56.50
2995;DHT22;35277;49.890;8.222;2023-07-08T04:21:06;26.90;56.50
2995;DHT22;35277;49.890;8.222;2023-07-08T04:23:36;26.90;56.40
2995;DHT22;35277;49.890;8.222;2023-07-08T04:26:04;26.90;56.40
2995;DHT22;35277;49.890;8.222;2023-07-08T04:28:33;26.90;56.40
2995;DHT22;35277;49.890;8.222;2023-07-08T04:31:01;26.90;56.40
2995;DHT22;35277;49.890;8.222;2023-07-08T04:33:30;26.80;56.20
2995;DHT22;35277;49.890;8.222;2023-07-08T04:35:58;26.80;56.10
2995;DHT22;35277;49.890;8.222;2023-07-08T04:38:26;26.70;56.00
2995;DHT22;35277;49.890;8.222;2023-07-08T04:40:54;26.70;55.90
2995;DHT22;35277;49.890;8.222;2023-07-08T04:43:24;26.60;55.70
2995;DHT22;35277;49.890;8.222;2023-07-08T04:45:57;26.60;55.70
2995;DHT22;35277;49.890;8.222;2023-07-08T04:48:25;26.50;55.70
2995;DHT22;35277;49.890;8.222;2023-07-08T04:50:53;26.50;56.40
2995;DHT22;35277;49.890;8.222;2023-07-08T04:53:21;26.50;55.70
2995;DHT22;35277;49.890;8.222;2023-07-08T04:55:54;26.50;55.70
2995;DHT22;35277;49.890;8.222;2023-07-08T04:58:22;26.40;55.70
2995;DHT22;35277;49.890;8.222;2023-07-08T05:00:50;26.40;55.70
2995;DHT22;35277;49.890;8.222;2023-07-08T05:03:19;26.40;55.80
2995;DHT22;35277;49.890;8.222;2023-07-08T05:05:47;26.40;55.70
2995;DHT22;35277;49.890;8.222;2023-07-08T05:08:15;26.40;55.80
2995;DHT22;35277;49.890;8.222;2023-07-08T05:10:43;26.40;55.90
2995;DHT22;35277;49.890;8.222;2023-07-08T05:13:10;26.40;55.90
2995;DHT22;35277;49.890;8.222;2023-07-08T05:15:38;26.30;55.80
2995;DHT22;35277;49.890;8.222;2023-07-08T05:18:06;26.30;55.90
2995;DHT22;35277;49.890;8.222;2023-07-08T05:20:35;26.30;56.00
2995;DHT22;35277;49.890;8.222;2023-07-08T05:23:03;26.40;56.00
2995;DHT22;35277;49.890;8.222;2023-07-08T05:25:32;26.40;56.00
2995;DHT22;35277;49.890;8.222;2023-07-08T05:28:00;26.40;56.10
2995;DHT22;35277;49.890;8.222;2023-07-08T05:30:28;26.40;56.10
2995;DHT22;35277;49.890;8.222;2023-07-08T05:32:55;26.40;56.00
2995;DHT22;35277;49.890;8.222;2023-07-08T05:35:23;26.40;56.00
2995;DHT22;35277;49.890;8.222;2023-07-08T05:37:52;26.40;56.00
2995;DHT22;35277;49.890;8.222;2023-07-08T05:40:20;26.40;56.00
2995;DHT22;35277;49.890;8.222;2023-07-08T05:42:48;26.40;56.10
2995;DHT22;35277;49.890;8.222;2023-07-08T05:45:16;26.40;56.10
2995;DHT22;35277;49.890;8.222;2023-07-08T05:47:44;26.40;56.10
2995;DHT22;35277;49.890;8.222;2023-07-08T05:50:12;26.40;56.10
2995;DHT22;35277;49.890;8.222;2023-07-08T05:52:39;26.30;56.10
2995;DHT22;35277;49.890;8.222;2023-07-08T05:55:09;26.30;56.10
2995;DHT22;35277;49.890;8.222;2023-07-08T05:57:37;26.30;56.20
2995;DHT22;35277;49.890;8.222;2023-07-08T06:00:05;26.30;56.20
2995;DHT22;35277;49.890;8.222;2023-07-08T06:02:37;26.30;56.30
2995;DHT22;35277;49.890;8.222;2023-07-08T06:05:06;26.30;56.20
2995;DHT22;35277;49.890;8.222;2023-07-08T06:07:34;26.30;56.30
2995;DHT22;35277;49.890;8.222;2023-07-08T06:10:01;26.30;56.30
2995;DHT22;35277;49.890;8.222;2023-07-08T06:12:30;26.30;56.30
2995;DHT22;35277;49.890;8.222;2023-07-08T06:14:58;26.30;56.30
2995;DHT22;35277;49.890;8.222;2023-07-08T06:17:26;26.40;56.30
2995;DHT22;35277;49.890;8.222;2023-07-08T06:19:54;26.40;56.40
2995;DHT22;35277;49.890;8.222;2023-07-08T06:22:22;26.40;56.40
2995;DHT22;35277;49.890;8.222;2023-07-08T06:25:09;26.40;56.40
2995;DHT22;35277;49.890;8.222;2023-07-08T06:27:39;26.40;56.40
2995;DHT22;35277;49.890;8.222;2023-07-08T06:30:07;26.50;56.50
2995;DHT22;35277;49.890;8.222;2023-07-08T06:32:35;26.50;56.50
2995;DHT22;35277;49.890;8.222;2023-07-08T06:35:04;26.50;56.50
2995;DHT22;35277;49.890;8.222;2023-07-08T06:37:32;26.50;56.50
2995;DHT22;35277;49.890;8.222;2023-07-08T06:39:59;26.50;56.50
2995;DHT22;35277;49.890;8.222;2023-07-08T06:42:27;26.50;56.50
2995;DHT22;35277;49.890;8.222;2023-07-08T06:45:07;26.50;56.50
2995;DHT22;35277;49.890;8.222;2023-07-08T06:47:35;26.50;56.50
2995;DHT22;35277;49.890;8.222;2023-07-08T06:50:03;26.50;56.40
2995;DHT22;35277;49.890;8.222;2023-07-08T06:52:32;26.50;56.40
2995;DHT22;35277;49.890;8.222;2023-07-08T06:55:02;26.50;56.40
2995;DHT22;35277;49.890;8.222;2023-07-08T06:57:31;26.60;56.50
2995;DHT22;35277;49.890;8.222;2023-07-08T06:59:59;26.60;56.50
2995;DHT22;35277;49.890;8.222;2023-07-08T07:02:28;26.60;56.50
2995;DHT22;35277;49.890;8.222;2023-07-08T07:04:56;26.60;56.50
2995;DHT22;35277;49.890;8.222;2023-07-08T07:07:24;26.60;56.50
2995;DHT22;35277;49.890;8.222;2023-07-08T07:09:54;26.60;56.40
2995;DHT22;35277;49.890;8.222;2023-07-08T07:12:23;26.60;56.40
2995;DHT22;35277;49.890;8.222;2023-07-08T07:14:51;26.60;56.30
2995;DHT22;35277;49.890;8.222;2023-07-08T07:17:20;26.60;56.30
2995;DHT22;35277;49.890;8.222;2023-07-08T07:19:49;26.60;56.20
2995;DHT22;35277;49.890;8.222;2023-07-08T07:22:17;26.60;56.20
2995;DHT22;35277;49.890;8.222;2023-07-08T07:24:45;26.60;56.20
2995;DHT22;35277;49.890;8.222;2023-07-08T07:27:13;26.60;56.30
2995;DHT22;35277;49.890;8.222;2023-07-08T07:29:43;26.60;56.40
2995;DHT22;35277;49.890;8.222;2023-07-08T07:32:11;26.60;56.50
2995;DHT22;35277;49.890;8.222;2023-07-08T07:34:39;26.60;56.50
2995;DHT22;35277;49.890;8.222;2023-07-08T07:37:11;26.70;56.60
2995;DHT22;35277;49.890;8.222;2023-07-08T07:39:40;26.70;56.60
2995;DHT22;35277;49.890;8.222;2023-07-08T07:42:09;26.80;56.60
2995;DHT22;35277;49.890;8.222;2023-07-08T07:44:37;26.80;56.50
2995;DHT22;35277;49.890;8.222;2023-07-08T07:47:06;26.80;56.50
2995;DHT22;35277;49.890;8.222;2023-07-08T07:49:34;26.80;56.50
2995;DHT22;35277;49.890;8.222;2023-07-08T07:52:03;26.90;56.50
2995;DHT22;35277;49.890;8.222;2023-07-08T07:54:32;26.90;56.40
2995;DHT22;35277;49.890;8.222;2023-07-08T07:57:00;27.00;56.50
2995;DHT22;35277;49.890;8.222;2023-07-08T07:59:28;27.00;56.50
2995;DHT22;35277;49.890;8.222;2023-07-08T08:01:56;27.10;56.60
2995;DHT22;35277;49.890;8.222;2023-07-08T08:04:24;27.10;56.70
2995;DHT22;35277;49.890;8.222;2023-07-08T08:06:51;27.20;56.70
2995;DHT22;35277;49.890;8.222;2023-07-08T08:09:19;27.20;56.80
2995;DHT22;35277;49.890;8.222;2023-07-08T08:11:49;27.20;57.00
2995;DHT22;35277;49.890;8.222;2023-07-08T08:14:18;27.20;57.20
2995;DHT22;35277;49.890;8.222;2023-07-08T08:16:45;27.30;57.60
2995;DHT22;35277;49.890;8.222;2023-07-08T08:19:13;27.30;57.60
2995;DHT22;35277;49.890;8.222;2023-07-08T08:21:41;27.40;57.60
2995;DHT22;35277;49.890;8.222;2023-07-08T08:24:09;27.50;57.40
2995;DHT22;35277;49.890;8.222;2023-07-08T08:26:37;27.50;57.20
2995;DHT22;35277;49.890;8.222;2023-07-08T08:29:06;27.50;57.00
2995;DHT22;35277;49.890;8.222;2023-07-08T08:31:33;27.50;56.90
2995;DHT22;35277;49.890;8.222;2023-07-08T08:34:01;27.60;56.90
2995;DHT22;35277;49.890;8.222;2023-07-08T08:36:29;27.50;56.60
2995;DHT22;35277;49.890;8.222;2023-07-08T08:38:57;27.50;56.50
2995;DHT22;35277;49.890;8.222;2023-07-08T08:41:29;27.50;56.40
2995;DHT22;35277;49.890;8.222;2023-07-08T08:43:58;27.50;56.30
2995;DHT22;35277;49.890;8.222;2023-07-08T08:46:34;27.50;56.30
2995;DHT22;35277;49.890;8.222;2023-07-08T08:49:12;27.50;56.20
2995;DHT22;35277;49.890;8.222;2023-07-08T08:51:41;27.60;56.30
2995;DHT22;35277;49.890;8.222;2023-07-08T08:54:09;27.60;56.20
2995;DHT22;35277;49.890;8.222;2023-07-08T08:56:42;27.60;56.20
2995;DHT22;35277;49.890;8.222;2023-07-08T08:59:17;27.60;56.10
2995;DHT22;35277;49.890;8.222;2023-07-08T09:01:50;27.60;56.10
2995;DHT22;35277;49.890;8.222;2023-07-08T09:04:21;27.60;56.00
2995;DHT22;35277;49.890;8.222;2023-07-08T09:06:51;27.60;55.90
2995;DHT22;35277;49.890;8.222;2023-07-08T09:09:30;27.60;55.90
2995;DHT22;35277;49.890;8.222;2023-07-08T09:12:05;27.60;55.90
2995;DHT22;35277;49.890;8.222;2023-07-08T09:14:34;27.60;55.90
2995;DHT22;35277;49.890;8.222;2023-07-08T09:17:14;27.60;56.00
2995;DHT22;35277;49.890;8.222;2023-07-08T09:19:45;27.70;56.10
2995;DHT22;35277;49.890;8.222;2023-07-08T09:22:19;27.70;56.00
2995;DHT22;35277;49.890;8.222;2023-07-08T09:24:51;27.70;55.90
2995;DHT22;35277;49.890;8.222;2023-07-08T09:27:19;27.70;55.80
2995;DHT22;35277;49.890;8.222;2023-07-08T09:29:47;27.60;55.70
2995;DHT22;35277;49.890;8.222;2023-07-08T09:32:20;27.60;55.70
2995;DHT22;35277;49.890;8.222;2023-07-08T09:34:51;27.60;55.80
2995;DHT22;35277;49.890;8.222;2023-07-08T09:37:25;27.60;55.80
2995;DHT22;35277;49.890;8.222;2023-07-08T09:39:54;27.60;55.80
2995;DHT22;35277;49.890;8.222;2023-07-08T09:42:25;27.60;56.00
2995;DHT22;35277;49.890;8.222;2023-07-08T09:44:56;27.70;56.30
2995;DHT22;35277;49.890;8.222;2023-07-08T09:47:28;27.70;56.40
2995;DHT22;35277;49.890;8.222;2023-07-08T09:49:58;27.70;56.40
2995;DHT22;35277;49.890;8.222;2023-07-08T09:52:28;27.70;56.40
2995;DHT22;35277;49.890;8.222;2023-07-08T09:54:56;27.70;56.50
2995;DHT22;35277;49.890;8.222;2023-07-08T09:57:27;27.70;56.60
2995;DHT22;35277;49.890;8.222;2023-07-08T09:59:58;27.70;56.70
2995;DHT22;35277;49.890;8.222;2023-07-08T10:02:39;27.80;56.80
2995;DHT22;35277;49.890;8.222;2023-07-08T10:05:14;27.70;56.80
2995;DHT22;35277;49.890;8.222;2023-07-08T10:07:45;27.70;56.90
2995;DHT22;35277;49.890;8.222;2023-07-08T10:10:16;27.70;57.20
2995;DHT22;35277;49.890;8.222;2023-07-08T10:12:53;27.70;57.30
2995;DHT22;35277;49.890;8.222;2023-07-08T10:15:27;27.70;57.50
2995;DHT22;35277;49.890;8.222;2023-07-08T10:17:58;27.70;57.60
2995;DHT22;35277;49.890;8.222;2023-07-08T10:20:42;27.70;57.70
2995;DHT22;35277;49.890;8.222;2023-07-08T10:23:20;27.70;57.80
2995;DHT22;35277;49.890;8.222;2023-07-08T10:26:06;27.70;57.80
2995;DHT22;35277;49.890;8.222;2023-07-08T10:28:43;27.70;57.90
2995;DHT22;35277;49.890;8.222;2023-07-08T10:31:20;27.70;58.00
2995;DHT22;35277;49.890;8.222;2023-07-08T10:34:03;27.70;58.00
2995;DHT22;35277;49.890;8.222;2023-07-08T10:36:43;27.70;58.10
2995;DHT22;35277;49.890;8.222;2023-07-08T10:42:13;27.70;58.20
2995;DHT22;35277;49.890;8.222;2023-07-08T10:44:51;27.70;58.30
2995;DHT22;35277;49.890;8.222;2023-07-08T10:47:33;27.70;58.40
2995;DHT22;35277;49.890;8.222;2023-07-08T10:50:20;27.70;58.40
2995;DHT22;35277;49.890;8.222;2023-07-08T10:52:59;27.70;58.50
2995;DHT22;35277;49.890;8.222;2023-07-08T10:55:38;27.70;58.50
2995;DHT22;35277;49.890;8.222;2023-07-08T10:58:27;27.80;58.60
2995;DHT22;35277;49.890;8.222;2023-07-08T11:01:03;27.80;58.80
2995;DHT22;35277;49.890;8.222;2023-07-08T11:03:46;27.80;59.10
2995;DHT22;35277;49.890;8.222;2023-07-08T11:06:22;27.90;59.20
2995;DHT22;35277;49.890;8.222;2023-07-08T11:08:55;27.90;59.20
2995;DHT22;35277;49.890;8.222;2023-07-08T11:11:32;28.00;59.40
2995;DHT22;35277;49.890;8.222;2023-07-08T11:14:06;28.10;59.70
2995;DHT22;35277;49.890;8.222;2023-07-08T11:16:41;28.20;59.70
2995;DHT22;35277;49.890;8.222;2023-07-08T11:19:16;28.30;60.20
2995;DHT22;35277;49.890;8.222;2023-07-08T11:21:50;28.40;59.30
2995;DHT22;35277;49.890;8.222;2023-07-08T11:24:25;28.50;59.10
2995;DHT22;35277;49.890;8.222;2023-07-08T11:26:58;28.60;59.00
2995;DHT22;35277;49.890;8.222;2023-07-08T11:29:35;28.60;58.80
2995;DHT22;35277;49.890;8.222;2023-07-08T11:32:04;28.60;58.70
2995;DHT22;35277;49.890;8.222;2023-07-08T11:34:34;28.60;58.70
2995;DHT22;35277;49.890;8.222;2023-07-08T11:37:04;28.50;58.60
2995;DHT22;35277;49.890;8.222;2023-07-08T11:39:34;28.50;58.60
2995;DHT22;35277;49.890;8.222;2023-07-08T11:42:17;28.50;58.60
2995;DHT22;35277;49.890;8.222;2023-07-08T11:44:49;28.40;58.70
2995;DHT22;35277;49.890;8.222;2023-07-08T11:47:22;28.40;58.70
2995;DHT22;35277;49.890;8.222;2023-07-08T11:49:52;28.30;58.60
2995;DHT22;35277;49.890;8.222;2023-07-08T11:52:22;28.30;58.70
2995;DHT22;35277;49.890;8.222;2023-07-08T11:54:56;28.30;58.90
2995;DHT22;35277;49.890;8.222;2023-07-08T11:57:29;28.30;59.20
2995;DHT22;35277;49.890;8.222;2023-07-08T12:00:15;28.20;59.30
2995;DHT22;35277;49.890;8.222;2023-07-08T12:02:51;28.20;59.50
2995;DHT22;35277;49.890;8.222;2023-07-08T12:05:33;28.20;59.60
2995;DHT22;35277;49.890;8.222;2023-07-08T12:08:11;28.20;59.70
2995;DHT22;35277;49.890;8.222;2023-07-08T12:10:40;28.20;59.70
2995;DHT22;35277;49.890;8.222;2023-07-08T12:13:15;28.10;59.70
2995;DHT22;35277;49.890;8.222;2023-07-08T12:15:43;28.10;59.80
2995;DHT22;35277;49.890;8.222;2023-07-08T12:18:13;28.10;59.90
2995;DHT22;35277;49.890;8.222;2023-07-08T12:20:44;28.10;60.00
2995;DHT22;35277;49.890;8.222;2023-07-08T12:23:18;28.00;59.90
2995;DHT22;35277;49.890;8.222;2023-07-08T12:25:50;28.00;60.00
2995;DHT22;35277;49.890;8.222;2023-07-08T12:28:19;28.00;60.00
2995;DHT22;35277;49.890;8.222;2023-07-08T12:30:47;28.00;60.00
2995;DHT22;35277;49.890;8.222;2023-07-08T12:33:19;28.00;60.00
2995;DHT22;35277;49.890;8.222;2023-07-08T12:35:50;28.00;60.00
2995;DHT22;35277;49.890;8.222;2023-07-08T12:38:23;28.00;60.10
2995;DHT22;35277;49.890;8.222;2023-07-08T12:40:55;28.00;60.10
2995;DHT22;35277;49.890;8.222;2023-07-08T12:43:23;27.90;60.00
2995;DHT22;35277;49.890;8.222;2023-07-08T12:45:51;27.90;60.00
2995;DHT22;35277;49.890;8.222;2023-07-08T12:48:19;27.90;60.80
2995;DHT22;35277;49.890;8.222;2023-07-08T12:50:46;27.90;60.00
2995;DHT22;35277;49.890;8.222;2023-07-08T12:53:16;27.90;60.00
2995;DHT22;35277;49.890;8.222;2023-07-08T12:55:46;27.90;60.00
2995;DHT22;35277;49.890;8.222;2023-07-08T12:58:23;27.90;60.00
2995;DHT22;35277;49.890;8.222;2023-07-08T13:00:52;27.90;60.00
2995;DHT22;35277;49.890;8.222;2023-07-08T13:03:23;27.90;60.00
2995;DHT22;35277;49.890;8.222;2023-07-08T13:05:53;27.90;60.00
2995;DHT22;35277;49.890;8.222;2023-07-08T13:08:24;27.90;60.00
2995;DHT22;35277;49.890;8.222;2023-07-08T13:10:57;27.90;60.00
2995;DHT22;35277;49.890;8.222;2023-07-08T13:13:29;27.90;60.00
2995;DHT22;35277;49.890;8.222;2023-07-08T13:15:58;27.90;60.00
2995;DHT22;35277;49.890;8.222;2023-07-08T13:18:32;27.90;59.90
2995;DHT22;35277;49.890;8.222;2023-07-08T13:21:02;27.90;59.90
2995;DHT22;35277;49.890;8.222;2023-07-08T13:23:30;27.90;59.80
2995;DHT22;35277;49.890;8.222;2023-07-08T13:25:59;27.90;59.90
2995;DHT22;35277;49.890;8.222;2023-07-08T13:28:29;27.90;59.80
2995;DHT22;35277;49.890;8.222;2023-07-08T13:31:00;27.90;59.80
2995;DHT22;35277;49.890;8.222;2023-07-08T13:33:29;27.90;59.80
2995;DHT22;35277;49.890;8.222;2023-07-08T13:35:58;27.90;59.80
2995;DHT22;35277;49.890;8.222;2023-07-08T13:38:32;27.90;59.80
2995;DHT22;35277;49.890;8.222;2023-07-08T13:41:03;27.90;59.80
2995;DHT22;35277;49.890;8.222;2023-07-08T13:43:33;27.90;59.80
2995;DHT22;35277;49.890;8.222;2023-07-08T13:46:02;27.90;59.80
2995;DHT22;35277;49.890;8.222;2023-07-08T13:48:34;27.80;59.80
2995;DHT22;35277;49.890;8.222;2023-07-08T13:51:07;27.80;59.80
2995;DHT22;35277;49.890;8.222;2023-07-08T13:53:43;27.80;59.80
2995;DHT22;35277;49.890;8.222;2023-07-08T13:56:15;27.80;59.90
2995;DHT22;35277;49.890;8.222;2023-07-08T13:58:45;27.80;59.90
2995;DHT22;35277;49.890;8.222;2023-07-08T14:01:16;27.80;59.90
2995;DHT22;35277;49.890;8.222;2023-07-08T14:03:48;27.80;59.90
2995;DHT22;35277;49.890;8.222;2023-07-08T14:06:18;27.80;60.00
2995;DHT22;35277;49.890;8.222;2023-07-08T14:08:45;27.80;60.00
2995;DHT22;35277;49.890;8.222;2023-07-08T14:11:14;27.80;60.00
2995;DHT22;35277;49.890;8.222;2023-07-08T14:13:42;27.80;60.00
2995;DHT22;35277;49.890;8.222;2023-07-08T14:16:20;27.80;60.00
2995;DHT22;35277;49.890;8.222;2023-07-08T14:18:50;27.80;60.00
2995;DHT22;35277;49.890;8.222;2023-07-08T14:21:18;27.80;60.00
2995;DHT22;35277;49.890;8.222;2023-07-08T14:23:46;27.80;60.00
2995;DHT22;35277;49.890;8.222;2023-07-08T14:26:15;27.80;60.00
2995;DHT22;35277;49.890;8.222;2023-07-08T14:28:43;27.80;60.00
2995;DHT22;35277;49.890;8.222;2023-07-08T14:31:12;27.80;60.00
2995;DHT22;35277;49.890;8.222;2023-07-08T14:33:42;27.80;60.00
2995;DHT22;35277;49.890;8.222;2023-07-08T14:36:10;27.80;59.90
2995;DHT22;35277;49.890;8.222;2023-07-08T14:38:39;27.80;59.90
2995;DHT22;35277;49.890;8.222;2023-07-08T14:41:06;27.90;60.00
2995;DHT22;35277;49.890;8.222;2023-07-08T14:43:36;27.90;60.00
2995;DHT22;35277;49.890;8.222;2023-07-08T14:46:08;27.90;60.00
2995;DHT22;35277;49.890;8.222;2023-07-08T14:48:37;27.90;60.00
2995;DHT22;35277;49.890;8.222;2023-07-08T14:51:04;27.90;60.00
2995;DHT22;35277;49.890;8.222;2023-07-08T14:53:32;27.90;59.90
2995;DHT22;35277;49.890;8.222;2023-07-08T14:56:08;27.90;59.90
2995;DHT22;35277;49.890;8.222;2023-07-08T14:58:39;27.90;60.00
2995;DHT22;35277;49.890;8.222;2023-07-08T15:01:12;27.90;59.90
2995;DHT22;35277;49.890;8.222;2023-07-08T15:03:41;27.90;59.90
2995;DHT22;35277;49.890;8.222;2023-07-08T15:06:10;27.90;59.90
2995;DHT22;35277;49.890;8.222;2023-07-08T15:08:38;27.90;59.90
2995;DHT22;35277;49.890;8.222;2023-07-08T15:11:08;27.90;59.90
2995;DHT22;35277;49.890;8.222;2023-07-08T15:13:39;27.90;59.80
2995;DHT22;35277;49.890;8.222;2023-07-08T15:16:11;27.90;59.80
2995;DHT22;35277;49.890;8.222;2023-07-08T15:18:41;27.90;59.80
2995;DHT22;35277;49.890;8.222;2023-07-08T15:21:10;27.90;60.60
2995;DHT22;35277;49.890;8.222;2023-07-08T15:23:39;27.90;59.80
2995;DHT22;35277;49.890;8.222;2023-07-08T15:26:09;27.90;59.80
2995;DHT22;35277;49.890;8.222;2023-07-08T15:28:42;27.90;59.70
2995;DHT22;35277;49.890;8.222;2023-07-08T15:31:15;27.90;59.80
2995;DHT22;35277;49.890;8.222;2023-07-08T15:33:44;27.90;59.70
2995;DHT22;35277;49.890;8.222;2023-07-08T15:36:12;27.90;59.70
2995;DHT22;35277;49.890;8.222;2023-07-08T15:38:40;27.90;59.70
2995;DHT22;35277;49.890;8.222;2023-07-08T15:41:19;27.90;59.80
2995;DHT22;35277;49.890;8.222;2023-07-08T15:43:49;27.90;59.70
2995;DHT22;35277;49.890;8.222;2023-07-08T15:46:17;27.90;59.70
2995;DHT22;35277;49.890;8.222;2023-07-08T15:48:45;27.90;59.70
2995;DHT22;35277;49.890;8.222;2023-07-08T15:51:13;27.90;59.70
2995;DHT22;35277;49.890;8.222;2023-07-08T15:53:42;27.90;59.70
2995;DHT22;35277;49.890;8.222;2023-07-08T15:56:11;27.90;59.70
2995;DHT22;35277;49.890;8.222;2023-07-08T15:58:41;27.90;59.70
2995;DHT22;35277;49.890;8.222;2023-07-08T16:01:16;27.90;59.70
2995;DHT22;35277;49.890;8.222;2023-07-08T16:03:47;27.90;59.70
2995;DHT22;35277;49.890;8.222;2023-07-08T16:06:16;27.90;59.70
2995;DHT22;35277;49.890;8.222;2023-07-08T16:08:44;27.90;59.70